Bayview, Wisconsin
Current Conditions -  °F | °C
As of 1:52 PM on Friday 24 Oct 2014 (Local Time) from KMKE Reporting Station
Scattered Clouds Scattered Clouds  
Wind Chill: 14°   Ceiling: Unl
Heat Index: 14°   Visibility: 10mi
Dew Point: 10°   Wind: 6mph
Humidity: 77%   Direction: NA
Pressure: 29.99"   Gusts: NA
Location:  42.9708°N, 87.8754°W
Report Text: KMKE 241852Z VRB05KT 10SM FEW010 SCT250 14/10 A2999 RMK AO2 SLP155 T01390100
Loading
Personal Weather Stations






























Interactive Weather Map
Tropical Storm Tracking
New forecast layout! Learn more

10-Day Weather Forecast

Advertisements
Track Severe Weather on mobile